createdAt,value
2022-12-05T00:01:49.536Z,101381.86
2022-12-05T00:04:17.691Z,101379.42
2022-12-05T00:06:45.740Z,101373.48
2022-12-05T00:09:14.231Z,101369.68
2022-12-05T00:11:44.861Z,101362.77
2022-12-05T00:14:13.442Z,101365.13
2022-12-05T00:16:42.684Z,101374.99
2022-12-05T00:19:15.153Z,101385.28
2022-12-05T00:21:44.103Z,101376.13
2022-12-05T00:24:15.544Z,101374.85
2022-12-05T00:26:44.279Z,101373.82
2022-12-05T00:29:13.026Z,101373.52
2022-12-05T00:31:41.372Z,101371.66
2022-12-05T00:34:09.814Z,101372.19
2022-12-05T00:36:37.896Z,101373.66
2022-12-05T00:39:09.235Z,101371.18
2022-12-05T00:41:38.202Z,101376.20
2022-12-05T00:44:06.479Z,101379.62
2022-12-05T00:46:36.438Z,101380.04
2022-12-05T00:49:06.657Z,101386.18
2022-12-05T00:51:37.864Z,101390.60
2022-12-05T00:54:12.648Z,101389.23
2022-12-05T00:56:41.385Z,101383.42
2022-12-05T00:59:14.886Z,101384.91
2022-12-05T01:01:44.747Z,101381.38
2022-12-05T01:04:18.509Z,101375.33
2022-12-05T01:06:47.802Z,101375.20
2022-12-05T01:09:18.521Z,101374.95
2022-12-05T01:11:47.024Z,101380.73
2022-12-05T01:14:17.982Z,101382.02
2022-12-05T01:16:48.481Z,101387.08
2022-12-05T01:19:23.733Z,101384.46
2022-12-05T01:21:52.210Z,101384.30
2022-12-05T01:24:21.721Z,101384.97
2022-12-05T01:26:49.691Z,101380.11
2022-12-05T01:29:19.562Z,101378.24
2022-12-05T01:31:48.135Z,101373.18
2022-12-05T01:34:17.905Z,101371.28
2022-12-05T01:36:46.801Z,101369.41
2022-12-05T01:39:15.583Z,101372.91
2022-12-05T01:41:46.464Z,101377.96
2022-12-05T01:44:14.389Z,101371.86
2022-12-05T01:46:50.555Z,101371.78
2022-12-05T01:49:35.400Z,101373.98
2022-12-05T01:52:10.592Z,101371.45
2022-12-05T01:54:39.243Z,101369.61
2022-12-05T01:57:11.737Z,101373.08
2022-12-05T01:59:45.449Z,101375.33
2022-12-05T02:02:13.876Z,101375.62
2022-12-05T02:04:52.011Z,101371.15
2022-12-05T02:07:19.988Z,101374.20
2022-12-05T02:09:51.119Z,101371.02
2022-12-05T02:12:21.654Z,101370.90
2022-12-05T02:15:13.256Z,101376.39
2022-12-05T02:18:10.230Z,101382.98
2022-12-05T02:20:50.484Z,101380.55
2022-12-05T02:23:36.537Z,101371.77
2022-12-05T02:26:34.456Z,101365.79
2022-12-05T02:29:08.254Z,101359.62
2022-12-05T02:31:57.914Z,101360.98
2022-12-05T02:34:34.301Z,101356.98
2022-12-05T02:37:08.108Z,101357.88
2022-12-05T02:39:46.631Z,101360.02
2022-12-05T02:42:21.876Z,101369.59
2022-12-05T02:45:14.828Z,101370.23
2022-12-05T02:47:47.608Z,101364.31
2022-12-05T02:50:21.007Z,101358.34
2022-12-05T02:52:52.539Z,101359.01
2022-12-05T02:55:22.404Z,101357.66
2022-12-05T02:57:56.282Z,101359.80
2022-12-05T03:00:24.151Z,101366.01
2022-12-05T03:02:56.420Z,101360.41
2022-12-05T03:06:05.662Z,101362.60
2022-12-05T03:08:45.113Z,101365.35
2022-12-05T03:11:14.094Z,101364.15
2022-12-05T03:13:46.432Z,101363.10
2022-12-05T03:16:20.313Z,101358.44
2022-12-05T03:18:54.809Z,101363.45
2022-12-05T03:21:34.261Z,101357.52
2022-12-05T03:24:11.619Z,101351.88
2022-12-05T03:27:05.393Z,101353.66
2022-12-05T03:29:43.711Z,101356.95
2022-12-05T03:32:25.090Z,101356.46
2022-12-05T03:35:03.204Z,101360.05
2022-12-05T03:37:40.875Z,101363.05
2022-12-05T03:40:24.123Z,101362.05
2022-12-05T03:43:12.682Z,101356.06
2022-12-05T03:45:53.186Z,101350.83
2022-12-05T03:48:39.848Z,101347.78
2022-12-05T03:51:09.010Z,101345.00
2022-12-05T03:53:59.788Z,101351.09
2022-12-05T03:56:38.174Z,101345.19
2022-12-05T03:59:12.982Z,101339.95
2022-12-05T04:01:43.730Z,101342.27
2022-12-05T04:04:19.804Z,101343.89
2022-12-05T04:06:50.939Z,101339.71
2022-12-05T04:09:24.230Z,101335.45
2022-12-05T04:11:57.687Z,101334.04
2022-12-05T04:14:31.383Z,101332.05
2022-12-05T04:17:20.606Z,101333.41
2022-12-05T04:20:29.467Z,101328.67
2022-12-05T04:22:58.391Z,101330.85
2022-12-05T04:25:34.908Z,101332.14
2022-12-05T04:28:28.262Z,101324.10
2022-12-05T04:31:08.073Z,101327.34
2022-12-05T04:33:50.527Z,101326.29
2022-12-05T04:36:31.085Z,101325.67
2022-12-05T04:39:17.584Z,101328.58
2022-12-05T04:42:00.816Z,101328.03
2022-12-05T04:44:34.311Z,101324.59
2022-12-05T04:47:06.103Z,101327.23
2022-12-05T04:49:36.329Z,101327.72
2022-12-05T04:52:09.033Z,101330.65
2022-12-05T04:54:51.446Z,101334.84
2022-12-05T04:57:28.631Z,101333.27
2022-12-05T04:59:56.982Z,101331.50
2022-12-05T05:02:34.958Z,101335.70
2022-12-05T05:05:10.917Z,101332.66
2022-12-05T05:07:54.072Z,101334.70
2022-12-05T05:10:37.983Z,101333.89
2022-12-05T05:13:05.832Z,101323.84
2022-12-05T05:15:33.796Z,101327.84
2022-12-05T05:18:01.903Z,101327.96
2022-12-05T05:20:30.213Z,101328.48
2022-12-05T05:22:58.654Z,101326.59
2022-12-05T05:25:26.933Z,101325.44
2022-12-05T05:27:56.950Z,101323.64
2022-12-05T05:30:25.638Z,101322.00
2022-12-05T05:32:53.805Z,101320.36
2022-12-05T05:35:21.983Z,101319.59
2022-12-05T05:37:49.848Z,101314.95
2022-12-05T05:40:18.337Z,101317.07
2022-12-05T05:42:48.577Z,101312.37
2022-12-05T05:45:16.789Z,101321.73
2022-12-05T05:47:45.516Z,101323.39
2022-12-05T05:50:19.575Z,101325.05
2022-12-05T05:52:49.652Z,101327.33
2022-12-05T05:55:18.231Z,101329.84
2022-12-05T05:57:46.924Z,101325.16
2022-12-05T06:00:15.410Z,101317.83
2022-12-05T06:02:44.030Z,101323.08
2022-12-05T06:05:12.467Z,101329.48
2022-12-05T06:07:40.636Z,101328.16
2022-12-05T06:10:09.541Z,101328.40
2022-12-05T06:12:37.505Z,101323.74
2022-12-05T06:15:06.292Z,101321.36
2022-12-05T06:17:34.262Z,101320.98
2022-12-05T06:20:02.335Z,101321.63
2022-12-05T06:22:30.548Z,101320.36
2022-12-05T06:24:59.203Z,101317.27
2022-12-05T06:27:30.137Z,101320.14
2022-12-05T06:29:58.218Z,101320.92
2022-12-05T06:32:29.777Z,101324.59
2022-12-05T06:34:57.655Z,101329.34
2022-12-05T06:37:25.738Z,101333.32
2022-12-05T06:39:53.671Z,101330.88
2022-12-05T06:42:22.496Z,101328.31
2022-12-05T06:44:50.537Z,101330.75
2022-12-05T06:47:18.712Z,101326.33
2022-12-05T06:49:46.780Z,101331.00
2022-12-05T06:52:14.755Z,101324.08
2022-12-05T06:54:42.720Z,101325.04
2022-12-05T06:57:10.797Z,101324.97
2022-12-05T06:59:39.068Z,101326.84
2022-12-05T07:02:08.660Z,101331.58
2022-12-05T07:04:36.857Z,101333.02
2022-12-05T07:07:04.909Z,101332.13
2022-12-05T07:09:51.429Z,101324.35
2022-12-05T07:12:20.023Z,101328.17
2022-12-05T07:14:49.428Z,101329.48
2022-12-05T07:17:19.431Z,101334.94
2022-12-05T07:19:49.610Z,101331.94
2022-12-05T07:22:19.480Z,101336.41
2022-12-05T07:24:47.486Z,101332.26
2022-12-05T07:27:16.127Z,101336.47
2022-12-05T07:29:45.027Z,101335.70
2022-12-05T07:32:12.932Z,101333.77
2022-12-05T07:34:42.368Z,101334.66
2022-12-05T07:37:10.465Z,101334.73
2022-12-05T07:39:38.569Z,101329.42
2022-12-05T07:42:06.819Z,101338.45
2022-12-05T07:44:35.202Z,101342.95
2022-12-05T07:47:03.177Z,101341.95
2022-12-05T07:49:31.224Z,101342.21
2022-12-05T07:51:59.555Z,101336.34
2022-12-05T07:54:27.694Z,101340.85
2022-12-05T07:56:55.662Z,101344.15
2022-12-05T07:59:23.524Z,101343.60
2022-12-05T08:01:52.161Z,101339.44
2022-12-05T08:04:20.181Z,101336.39
2022-12-05T08:06:48.050Z,101333.96
2022-12-05T08:09:15.879Z,101338.25
2022-12-05T08:11:48.172Z,101339.66
2022-12-05T08:14:19.543Z,101335.83
2022-12-05T08:16:47.731Z,101337.98
2022-12-05T08:19:17.271Z,101334.10
2022-12-05T08:21:45.587Z,101340.23
2022-12-05T08:24:14.175Z,101342.75
2022-12-05T08:26:42.176Z,101338.97
2022-12-05T08:29:13.384Z,101345.18
2022-12-05T08:31:47.344Z,101342.73
2022-12-05T08:34:17.123Z,101341.19
2022-12-05T08:36:45.720Z,101345.58
2022-12-05T08:39:16.297Z,101345.05
2022-12-05T08:41:45.913Z,101342.40
2022-12-05T08:44:16.404Z,101349.63
2022-12-05T08:46:49.611Z,101350.98
2022-12-05T08:49:18.870Z,101351.02
2022-12-05T08:51:46.937Z,101353.27
2022-12-05T08:54:15.351Z,101354.54
2022-12-05T08:56:43.478Z,101353.48
2022-12-05T08:59:11.700Z,101349.94
2022-12-05T09:01:40.736Z,101348.89
2022-12-05T09:04:09.263Z,101352.91
2022-12-05T09:06:39.450Z,101355.85
2022-12-05T09:09:11.776Z,101352.27
2022-12-05T09:11:46.658Z,101354.48
2022-12-05T09:14:15.568Z,101352.25
2022-12-05T09:16:46.816Z,101351.51
2022-12-05T09:19:18.393Z,101350.46
2022-12-05T09:21:46.961Z,101346.51
2022-12-05T09:24:15.256Z,101349.20
2022-12-05T09:26:45.146Z,101349.30
2022-12-05T09:29:18.150Z,101344.27
2022-12-05T09:31:48.906Z,101343.56
2022-12-05T09:34:18.689Z,101338.79
2022-12-05T09:36:55.614Z,101338.27
2022-12-05T09:39:26.538Z,101336.25
2022-12-05T09:42:18.733Z,101335.09
2022-12-05T09:45:15.375Z,101331.60
2022-12-05T09:47:58.085Z,101324.44
2022-12-05T09:50:30.349Z,101328.36
2022-12-05T09:53:07.334Z,101335.84
2022-12-05T09:55:56.306Z,101337.08
2022-12-05T09:58:33.146Z,101340.41
2022-12-05T10:01:12.104Z,101348.30
2022-12-05T10:03:48.605Z,101348.10
2022-12-05T10:06:25.533Z,101337.19
2022-12-05T10:08:56.655Z,101336.95
2022-12-05T10:11:47.615Z,101341.55
2022-12-05T10:14:37.201Z,101347.73
2022-12-05T10:17:16.947Z,101345.61
2022-12-05T10:19:50.002Z,101338.11
2022-12-05T10:22:29.780Z,101322.54
2022-12-05T10:25:04.606Z,101317.97
2022-12-05T10:27:40.052Z,101313.14
2022-12-05T10:30:17.806Z,101310.63
2022-12-05T10:32:59.307Z,101304.19
2022-12-05T10:35:33.664Z,101302.91
2022-12-05T10:38:11.278Z,101298.52
2022-12-05T10:40:43.250Z,101300.57
2022-12-05T10:43:15.549Z,101293.02
2022-12-05T10:45:48.457Z,101291.71
2022-12-05T10:48:19.359Z,101293.52
2022-12-05T10:50:50.448Z,101288.10
2022-12-05T10:53:27.406Z,101291.40
2022-12-05T10:56:28.638Z,101283.71
2022-12-05T10:58:58.419Z,101271.06
2022-12-05T11:01:29.354Z,101258.14
2022-12-05T11:04:01.026Z,101260.03
2022-12-05T11:06:31.328Z,101259.46
2022-12-05T11:09:13.659Z,101259.36
2022-12-05T11:11:42.117Z,101259.34
2022-12-05T11:14:24.085Z,101270.80
2022-12-05T11:17:00.396Z,101282.40
2022-12-05T11:19:31.846Z,101290.42
2022-12-05T11:22:00.862Z,101291.73
2022-12-05T11:24:37.711Z,101282.42
2022-12-05T11:27:17.649Z,101286.58
2022-12-05T11:29:59.259Z,101285.92
2022-12-05T11:32:33.457Z,101284.64
2022-12-05T11:35:10.106Z,101280.96
2022-12-05T11:37:51.942Z,101281.52
2022-12-05T11:41:00.035Z,101278.51
2022-12-05T11:43:52.883Z,101281.75
2022-12-05T11:46:40.267Z,101271.34
2022-12-05T11:49:46.172Z,101268.59
2022-12-05T11:52:19.980Z,101267.77
2022-12-05T11:55:05.131Z,101270.36
2022-12-05T11:57:52.542Z,101270.80
2022-12-05T12:00:29.238Z,101274.46
2022-12-05T12:03:18.829Z,101262.77
2022-12-05T12:06:05.636Z,101259.98
2022-12-05T12:08:52.351Z,101255.20
2022-12-05T12:11:47.149Z,101254.45
2022-12-05T12:14:36.100Z,101251.13
2022-12-05T12:17:51.808Z,101252.40
2022-12-05T12:20:48.975Z,101251.39
2022-12-05T12:23:51.887Z,101248.11
2022-12-05T12:27:01.559Z,101239.50
2022-12-05T12:30:01.409Z,101232.64
2022-12-05T12:32:47.591Z,101234.04
2022-12-05T12:35:29.601Z,101240.05
2022-12-05T12:38:32.802Z,101237.27
2022-12-05T12:41:00.753Z,101233.63
2022-12-05T12:43:54.861Z,101233.63
2022-12-05T12:46:29.782Z,101227.73
2022-12-05T12:49:06.676Z,101226.94
2022-12-05T12:51:34.937Z,101225.04
2022-12-05T12:54:15.005Z,101222.38
2022-12-05T12:57:03.971Z,101217.69
2022-12-05T12:59:55.054Z,101220.23
2022-12-05T13:02:45.223Z,101222.94
2022-12-05T13:05:32.322Z,101226.60
2022-12-05T13:08:28.808Z,101230.35
2022-12-05T13:10:58.535Z,101226.21
2022-12-05T13:13:38.789Z,101227.69
2022-12-05T13:16:08.449Z,101225.58
2022-12-05T13:18:36.673Z,101225.73
2022-12-05T13:21:08.226Z,101229.14
2022-12-05T13:23:45.947Z,101229.81
2022-12-05T13:26:15.238Z,101228.45
2022-12-05T13:28:52.477Z,101227.12
2022-12-05T13:31:39.080Z,101230.13
2022-12-05T13:34:27.173Z,101229.52
2022-12-05T13:37:19.298Z,101229.70
2022-12-05T13:40:11.128Z,101229.66
2022-12-05T13:42:40.085Z,101226.93
2022-12-05T13:45:15.437Z,101218.91
2022-12-05T13:47:46.195Z,101217.08
2022-12-05T13:50:41.198Z,101221.52
2022-12-05T13:53:21.216Z,101222.77
2022-12-05T13:56:00.340Z,101219.25
2022-12-05T13:58:31.225Z,101218.58
2022-12-05T14:01:46.486Z,101218.38
2022-12-05T14:04:45.961Z,101213.76
2022-12-05T14:07:39.016Z,101216.66
2022-12-05T14:10:08.915Z,101213.02
2022-12-05T14:12:49.252Z,101217.99
2022-12-05T14:15:39.595Z,101220.42
2022-12-05T14:18:18.418Z,101222.48
2022-12-05T14:20:55.799Z,101217.71
2022-12-05T14:23:39.811Z,101218.83
2022-12-05T14:26:32.282Z,101215.34
2022-12-05T14:29:15.474Z,101208.07
2022-12-05T14:32:04.443Z,101210.77
2022-12-05T14:34:36.959Z,101211.50
2022-12-05T14:37:24.131Z,101208.10
2022-12-05T14:39:55.397Z,101200.94
2022-12-05T14:42:43.025Z,101200.12
2022-12-05T14:45:37.396Z,101196.50
2022-12-05T14:48:30.930Z,101195.11
2022-12-05T14:51:00.776Z,101202.02
2022-12-05T14:53:37.664Z,101201.14
2022-12-05T14:56:21.859Z,101198.73
2022-12-05T14:59:09.794Z,101198.38
2022-12-05T15:01:50.093Z,101203.55
2022-12-05T15:04:38.410Z,101202.73
2022-12-05T15:07:14.799Z,101203.17
2022-12-05T15:09:51.805Z,101201.17
2022-12-05T15:12:34.648Z,101196.58
2022-12-05T15:15:13.601Z,101198.39
2022-12-05T15:17:50.266Z,101197.66
2022-12-05T15:20:27.720Z,101194.48
2022-12-05T15:22:55.680Z,101191.87
2022-12-05T15:25:32.935Z,101195.41
2022-12-05T15:28:06.275Z,101190.27
2022-12-05T15:30:39.875Z,101190.81
2022-12-05T15:33:13.044Z,101191.02
2022-12-05T15:35:41.651Z,101187.54
2022-12-05T15:38:27.069Z,101186.00
2022-12-05T15:40:56.054Z,101179.39
2022-12-05T15:43:32.643Z,101181.98
2022-12-05T15:46:30.613Z,101184.98
2022-12-05T15:49:00.692Z,101185.48
2022-12-05T15:51:36.972Z,101182.20
2022-12-05T15:54:11.887Z,101179.09
2022-12-05T15:56:48.968Z,101175.80
2022-12-05T15:59:29.131Z,101172.14
2022-12-05T16:02:04.798Z,101171.40
2022-12-05T16:04:48.711Z,101170.52
2022-12-05T16:07:16.995Z,101167.38
2022-12-05T16:09:46.595Z,101171.15
2022-12-05T16:12:31.013Z,101169.30
2022-12-05T16:15:05.073Z,101174.84
2022-12-05T16:17:53.616Z,101174.69
2022-12-05T16:20:25.422Z,101175.96
2022-12-05T16:22:56.667Z,101178.60
2022-12-05T16:25:37.091Z,101176.35
2022-12-05T16:28:07.922Z,101170.38
2022-12-05T16:30:37.907Z,101170.20
2022-12-05T16:33:14.006Z,101172.84
2022-12-05T16:35:43.349Z,101165.95
2022-12-05T16:38:17.518Z,101167.89
2022-12-05T16:40:45.342Z,101167.48
2022-12-05T16:43:32.433Z,101162.98
2022-12-05T16:46:15.766Z,101165.26
2022-12-05T16:48:49.587Z,101166.33
2022-12-05T16:51:26.077Z,101168.85
2022-12-05T16:53:56.231Z,101170.23
2022-12-05T16:56:31.758Z,101171.63
2022-12-05T16:59:05.018Z,101171.02
2022-12-05T17:01:38.727Z,101175.92
2022-12-05T17:04:11.463Z,101175.09
2022-12-05T17:06:39.485Z,101175.73
2022-12-05T17:09:07.557Z,101173.38
2022-12-05T17:11:40.475Z,101170.93
2022-12-05T17:14:13.919Z,101172.98
2022-12-05T17:16:43.672Z,101176.76
2022-12-05T17:19:12.694Z,101177.39
2022-12-05T17:21:42.216Z,101174.64
2022-12-05T17:24:17.343Z,101170.80
2022-12-05T17:26:46.490Z,101168.30
2022-12-05T17:29:14.509Z,101172.23
2022-12-05T17:31:42.582Z,101174.45
2022-12-05T17:34:16.501Z,101176.80
2022-12-05T17:36:45.595Z,101179.42
2022-12-05T17:39:13.608Z,101180.14
2022-12-05T17:42:16.345Z,101175.10
2022-12-05T17:44:44.406Z,101172.55
2022-12-05T17:47:12.312Z,101173.45
2022-12-05T17:49:40.130Z,101172.11
2022-12-05T17:52:21.345Z,101171.81
2022-12-05T17:54:50.733Z,101166.59
2022-12-05T17:57:18.922Z,101166.72
2022-12-05T17:59:46.982Z,101167.05
2022-12-05T18:02:15.799Z,101164.08
2022-12-05T18:04:43.786Z,101161.92
2022-12-05T18:07:12.138Z,101162.20
2022-12-05T18:09:40.084Z,101163.65
2022-12-05T18:12:08.264Z,101163.38
2022-12-05T18:14:36.148Z,101159.67
2022-12-05T18:17:04.733Z,101157.15
2022-12-05T18:19:32.686Z,101156.14
2022-12-05T18:22:00.748Z,101157.98
2022-12-05T18:24:28.681Z,101170.09
2022-12-05T18:26:56.508Z,101166.61
2022-12-05T18:29:24.768Z,101164.72
2022-12-05T18:31:52.916Z,101166.84
2022-12-05T18:34:21.223Z,101166.73
2022-12-05T18:36:49.394Z,101164.17
2022-12-05T18:39:17.443Z,101165.77
2022-12-05T18:41:45.432Z,101161.55
2022-12-05T18:44:13.355Z,101158.29
2022-12-05T18:46:41.174Z,101158.42
2022-12-05T18:49:12.657Z,101155.30
2022-12-05T18:51:40.898Z,101150.58
2022-12-05T18:54:09.020Z,101143.70
2022-12-05T18:56:40.157Z,101146.69
2022-12-05T18:59:13.261Z,101150.64
2022-12-05T19:01:42.377Z,101150.27
2022-12-05T19:04:12.509Z,101150.58
2022-12-05T19:06:43.318Z,101151.42
2022-12-05T19:09:15.480Z,101153.30
2022-12-05T19:11:47.503Z,101155.11
2022-12-05T19:14:18.987Z,101154.88
2022-12-05T19:16:53.709Z,101153.27
2022-12-05T19:19:26.256Z,101152.77
2022-12-05T19:21:55.202Z,101155.60
2022-12-05T19:24:23.184Z,101154.45
2022-12-05T19:26:51.295Z,101154.77
2022-12-05T19:29:19.466Z,101151.89
2022-12-05T19:31:47.478Z,101148.79
2022-12-05T19:34:15.720Z,101151.73
2022-12-05T19:36:46.156Z,101148.97
2022-12-05T19:39:23.770Z,101152.83
2022-12-05T19:41:52.635Z,101150.11
2022-12-05T19:44:21.622Z,101149.17
2022-12-05T19:46:50.365Z,101150.67
2022-12-05T19:49:19.398Z,101153.11
2022-12-05T19:51:48.801Z,101154.48
2022-12-05T19:54:20.970Z,101154.74
2022-12-05T19:56:49.062Z,101151.21
2022-12-05T19:59:17.564Z,101150.52
2022-12-05T20:01:45.756Z,101149.95
2022-12-05T20:04:16.236Z,101146.98
2022-12-05T20:06:47.054Z,101152.34
2022-12-05T20:09:18.557Z,101150.06
2022-12-05T20:11:54.128Z,101149.17
2022-12-05T20:14:25.876Z,101145.64
2022-12-05T20:16:54.746Z,101145.98
2022-12-05T20:19:24.037Z,101141.64
2022-12-05T20:21:52.201Z,101140.77
2022-12-05T20:24:20.476Z,101135.69
2022-12-05T20:26:48.261Z,101133.27
2022-12-05T20:29:16.519Z,101130.88
2022-12-05T20:31:44.589Z,101126.83
2022-12-05T20:34:14.911Z,101123.21
2022-12-05T20:36:43.813Z,101125.87
2022-12-05T20:39:17.262Z,101127.69
2022-12-05T20:41:45.879Z,101134.03
2022-12-05T20:44:16.136Z,101133.05
2022-12-05T20:46:44.906Z,101133.73
2022-12-05T20:49:14.004Z,101133.84
2022-12-05T20:51:44.474Z,101135.95
2022-12-05T20:54:16.912Z,101136.20
2022-12-05T20:56:45.668Z,101132.86
2022-12-05T20:59:14.269Z,101129.88
2022-12-05T21:01:42.689Z,101123.11
2022-12-05T21:04:12.462Z,101121.24
2022-12-05T21:06:43.092Z,101120.13
2022-12-05T21:09:16.130Z,101118.84
2022-12-05T21:11:45.389Z,101122.42
2022-12-05T21:14:13.455Z,101116.45
2022-12-05T21:16:41.430Z,101118.88
2022-12-05T21:19:09.928Z,101116.17
2022-12-05T21:21:38.388Z,101113.58
2022-12-05T21:24:07.084Z,101112.53
2022-12-05T21:26:35.456Z,101114.27
2022-12-05T21:29:05.886Z,101110.66
2022-12-05T21:31:37.541Z,101110.07
2022-12-05T21:34:12.662Z,101106.86
2022-12-05T21:36:41.160Z,101108.80
2022-12-05T21:39:09.131Z,101108.93
2022-12-05T21:41:37.028Z,101108.81
2022-12-05T21:44:05.177Z,101108.53
2022-12-05T21:46:33.726Z,101111.50
2022-12-05T21:49:01.834Z,101108.13
2022-12-05T21:51:29.700Z,101107.02
2022-12-05T21:53:57.772Z,101106.64
2022-12-05T21:56:25.750Z,101105.02
2022-12-05T21:58:54.230Z,101103.11
2022-12-05T22:01:25.394Z,101100.30
2022-12-05T22:03:59.732Z,101097.41
2022-12-05T22:06:28.617Z,101098.70
2022-12-05T22:08:56.549Z,101101.36
2022-12-05T22:11:25.129Z,101100.00
2022-12-05T22:13:53.383Z,101098.95
2022-12-05T22:16:21.850Z,101092.09
2022-12-05T22:18:49.966Z,101092.41
2022-12-05T22:21:20.698Z,101087.93
2022-12-05T22:23:49.520Z,101089.10
2022-12-05T22:26:20.380Z,101084.58
2022-12-05T22:28:54.112Z,101084.27
2022-12-05T22:31:23.421Z,101087.59
2022-12-05T22:33:51.587Z,101086.79
2022-12-05T22:36:20.393Z,101087.00
2022-12-05T22:38:48.982Z,101088.39
2022-12-05T22:41:20.939Z,101086.73
2022-12-05T22:43:54.754Z,101087.37
2022-12-05T22:46:23.393Z,101083.56
2022-12-05T22:48:52.316Z,101085.47
2022-12-05T22:51:22.180Z,101084.44
2022-12-05T22:53:51.951Z,101082.25
2022-12-05T22:56:21.764Z,101082.90
2022-12-05T22:58:54.992Z,101078.24
2022-12-05T23:01:26.478Z,101077.30
2022-12-05T23:04:00.196Z,101080.35
2022-12-05T23:06:29.767Z,101077.63
2022-12-05T23:08:58.608Z,101073.17
2022-12-05T23:11:27.386Z,101066.25
2022-12-05T23:14:02.266Z,101064.66
2022-12-05T23:16:32.257Z,101061.09
2022-12-05T23:19:03.189Z,101060.35
2022-12-05T23:21:36.388Z,101056.65
2022-12-05T23:24:07.458Z,101055.25
2022-12-05T23:26:38.885Z,101053.38
2022-12-05T23:29:07.568Z,101044.30
2022-12-05T23:31:35.578Z,101041.79
2022-12-05T23:34:04.403Z,101037.82
2022-12-05T23:36:34.346Z,101045.58
2022-12-05T23:39:03.706Z,101037.12
2022-12-05T23:41:32.144Z,101029.73
2022-12-05T23:44:00.298Z,101025.54
2022-12-05T23:46:28.948Z,101021.83
2022-12-05T23:48:58.258Z,101020.93
2022-12-05T23:51:29.298Z,101014.22
2022-12-05T23:53:59.690Z,101007.05
2022-12-05T23:56:30.665Z,101006.59
2022-12-05T23:58:59.222Z,101001.83
